Time;durP1;ratioP1;P1;durP2;ratioP2;P2;SDS_P1;SDS_P2;PMS_P1;PMS_P2;Temp;Humidity;BMP_temperature;BMP_pressure;BME280_temperature;BME280_humidity;BME280_pressure;Samples;Min_cycle;Max_cycle;Signal;HPM_P1;HPM_P2
2022/06/24 00:01:50;;;;;;;;;;;;;;;17.86;100.00;95195.75;10474382;28;2054;-73
2022/06/24 00:06:54;;;;;;;;;;;18.80;99.90;;;17.71;100.00;95191.72;10473501;28;1870;-74
2022/06/24 00:11:57;;;;;;;;;;;18.60;99.90;;;17.69;100.00;95196.66;10474071;28;1823;-76
2022/06/24 00:17:00;;;;;;;;;;;18.60;99.90;;;17.71;100.00;95199.88;10458610;28;2059;-74
2022/06/24 00:22:03;;;;;;;;;;;18.50;99.90;;;17.70;100.00;95211.06;10474361;28;1842;-74
2022/06/24 00:27:07;;;;;;;;;;;18.50;99.90;;;17.77;100.00;95217.56;10470632;28;1807;-74
2022/06/24 00:32:10;;;;;;;;;;;18.50;99.90;;;18.01;100.00;95208.72;10473768;28;1929;-74
2022/06/24 00:37:13;;;;;;;;;;;18.60;99.90;;;17.98;100.00;95214.81;10473369;28;1987;-74
2022/06/24 00:42:16;;;;;;;;;;;18.70;99.90;;;17.96;100.00;95217.09;10467341;28;2123;-74
2022/06/24 00:47:19;;;;;;;;;;;18.70;99.90;;;17.99;100.00;95216.41;10464098;28;2016;-74
2022/06/24 00:52:22;;;;;;;;;;;18.80;99.90;;;17.85;100.00;95215.13;10462072;28;1947;-74
2022/06/24 00:57:24;;;;;;;;;;;18.60;99.90;;;17.95;100.00;95214.72;10470666;28;1914;-73
2022/06/24 01:02:28;;;;;;;;;;;18.60;99.90;;;17.93;100.00;95222.38;10470326;28;2045;-74
2022/06/24 01:07:32;;;;;;;;;;;18.70;99.90;;;17.85;100.00;95217.81;10470474;28;2058;-74
2022/06/24 01:12:35;;;;;;;;;;;18.70;99.90;;;17.86;100.00;95219.41;10467033;28;1915;-74
2022/06/24 01:17:44;;;;;;;;;;;18.60;99.90;;;18.00;100.00;95225.34;10472874;28;2098;-74
2022/06/24 01:22:48;;;;;;;;;;;18.70;99.90;;;17.82;100.00;95220.09;10463427;28;1969;-74
2022/06/24 01:28:11;;;;;;;;;;;18.60;99.90;;;17.75;100.00;95222.56;10462406;28;1930;-74
2022/06/24 01:33:15;;;;;;;;;;;18.60;99.90;;;17.77;100.00;95220.28;10469252;28;1990;-75
2022/06/24 01:38:18;;;;;;;;;;;18.50;99.90;;;17.88;100.00;95222.59;10470542;28;1978;-73
2022/06/24 01:43:20;;;;;;;;;;;18.60;99.90;;;17.81;100.00;95215.78;10468621;28;1942;-74
2022/06/24 01:48:23;;;;;;;;;;;18.60;99.90;;;17.84;100.00;95208.88;10467960;28;1955;-74
2022/06/24 01:53:26;;;;;;;;;;;18.60;99.90;;;17.88;100.00;95219.88;10467859;28;1981;-75
2022/06/24 01:58:29;;;;;;;;;;;18.60;99.90;;;17.99;100.00;95223.78;10457172;28;2056;-74
2022/06/24 02:03:32;;;;;;;;;;;18.60;99.90;;;18.09;100.00;95217.94;10469442;28;1985;-74
2022/06/24 02:08:36;;;;;;;;;;;18.70;99.90;;;17.95;100.00;95214.72;10465259;28;2105;-74
2022/06/24 02:13:46;;;;;;;;;;;18.70;99.90;;;17.80;100.00;95211.47;10464925;28;2414;-73
2022/06/24 02:18:49;;;;;;;;;;;18.70;99.90;;;17.75;100.00;95222.56;10461908;28;2020;-74
2022/06/24 02:23:51;;;;;;;;;;;18.50;99.90;;;17.65;100.00;95231.06;10462404;28;1995;-74
2022/06/24 02:28:55;;;;;;;;;;;18.50;99.90;;;17.47;100.00;95226.88;10464529;28;2137;-74
2022/06/24 02:33:59;;;;;;;;;;;18.40;99.90;;;17.37;100.00;95221.81;10471990;28;1922;-74
2022/06/24 02:39:01;;;;;;;;;;;18.30;99.90;;;17.39;100.00;95216.88;10477842;28;2069;-74
2022/06/24 02:44:04;;;;;;;;;;;18.30;99.90;;;17.18;100.00;95204.06;10471474;28;1860;-74
2022/06/24 02:49:07;;;;;;;;;;;18.10;99.90;;;17.11;100.00;95214.63;10498443;28;2384;-74
2022/06/24 02:54:10;;;;;;;;;;;18.00;99.90;;;17.03;100.00;95212.78;10477525;28;1973;-74
2022/06/24 02:59:14;;;;;;;;;;;18.00;99.90;;;16.98;100.00;95207.53;10478312;28;1855;-73
2022/06/24 03:04:16;;;;;;;;;;;18.00;99.90;;;17.07;100.00;95202.06;10478374;28;1919;-74
2022/06/24 03:09:19;;;;;;;;;;;17.90;99.90;;;17.22;100.00;95210.41;10476854;28;1861;-74
2022/06/24 03:14:22;;;;;;;;;;;18.00;99.90;;;17.38;100.00;95199.00;10478551;28;1914;-74
2022/06/24 03:19:25;;;;;;;;;;;18.10;99.90;;;17.37;100.00;95213.69;10476843;28;1890;-74
2022/06/24 03:24:28;;;;;;;;;;;18.20;99.90;;;17.24;100.00;95208.19;10490502;28;1941;-74
2022/06/24 03:29:31;;;;;;;;;;;18.20;99.90;;;17.30;100.00;95206.06;10493744;28;1819;-74
2022/06/24 03:34:34;;;;;;;;;;;18.10;99.90;;;17.41;100.00;95209.97;10483192;28;1971;-74
2022/06/24 03:39:37;;;;;;;;;;;18.20;99.90;;;17.53;100.00;95203.81;10471151;28;1869;-74
2022/06/24 03:44:40;;;;;;;;;;;18.20;99.90;;;17.63;100.00;95194.50;10483247;28;1839;-74
2022/06/24 03:49:47;;;;;;;;;;;18.30;99.90;;;17.71;100.00;95191.72;10476340;28;1907;-75
2022/06/24 03:54:49;;;;;;;;;;;18.40;99.90;;;17.80;100.00;95189.72;10471474;28;1906;-74
2022/06/24 03:59:52;;;;;;;;;;;18.50;99.90;;;17.86;100.00;95184.06;10477825;28;2205;-74
2022/06/24 04:04:55;;;;;;;;;;;18.50;99.90;;;18.02;100.00;95177.69;10478648;28;2137;-74
2022/06/24 04:09:58;;;;;;;;;;;18.30;99.90;;;18.18;100.00;95186.00;10475073;28;1910;-74
2022/06/24 04:15:17;;;;;;;;;;;18.80;99.90;;;18.18;100.00;95180.53;10477080;28;1941;-74
2022/06/24 04:20:20;;;;;;;;;;;18.90;99.90;;;18.04;100.00;95190.94;10474504;28;1833;-73
2022/06/24 04:25:23;;;;;;;;;;;18.90;99.90;;;18.01;100.00;95194.34;10475098;28;2303;-73
2022/06/24 04:30:26;;;;;;;;;;;18.80;99.90;;;18.00;100.00;95196.25;10475365;28;1812;-74
2022/06/24 04:35:30;;;;;;;;;;;18.70;99.90;;;18.05;100.00;95190.59;10475015;28;1914;-73
2022/06/24 04:40:33;;;;;;;;;;;18.80;99.90;;;18.27;100.00;95199.53;10474635;28;1943;-73
2022/06/24 04:45:36;;;;;;;;;;;18.80;99.90;;;18.59;100.00;95201.41;10476790;28;1827;-74
2022/06/24 04:50:39;;;;;;;;;;;19.00;99.90;;;18.94;100.00;95200.19;10470081;28;1740;-73
2022/06/24 04:55:47;;;;;;;;;;;19.40;99.90;;;19.13;100.00;95194.97;10474900;28;1910;-73
2022/06/24 05:00:54;;;;;;;;;;;19.60;99.90;;;19.35;99.04;95204.59;10470317;28;1936;-73
2022/06/24 05:05:57;;;;;;;;;;;19.90;99.90;;;19.71;97.03;95201.00;10473178;28;1883;-73
2022/06/24 05:11:00;;;;;;;;;;;20.00;99.90;;;19.76;94.32;95214.41;10471665;28;1905;-73
2022/06/24 05:16:02;;;;;;;;;;;20.30;99.90;;;19.71;93.50;95212.72;10482090;28;2023;-73
2022/06/24 05:21:25;;;;;;;;;;;20.30;99.90;;;19.84;95.98;95215.41;10474988;28;1877;-74
2022/06/24 05:26:28;;;;;;;;;;;20.30;99.90;;;19.77;95.62;95217.94;10475916;28;1835;-74
2022/06/24 05:31:31;;;;;;;;;;;20.50;99.90;;;19.61;97.24;95218.66;10489604;28;1815;-74
2022/06/24 05:36:34;;;;;;;;;;;20.40;99.90;;;19.42;100.00;95210.25;10470876;28;1981;-74
2022/06/24 05:41:36;;;;;;;;;;;20.20;99.90;;;19.41;100.00;95206.75;10474912;28;1913;-74
2022/06/24 05:46:40;;;;;;;;;;;20.00;99.90;;;19.57;100.00;95206.03;10466357;28;1901;-74
2022/06/24 05:51:43;;;;;;;;;;;20.10;99.90;;;19.73;97.08;95198.75;10464364;28;1810;-75
2022/06/24 05:56:46;;;;;;;;;;;20.20;99.90;;;20.10;93.18;95190.41;10469641;28;1953;-75
2022/06/24 06:01:49;;;;;;;;;;;20.60;99.90;;;20.43;92.09;95188.19;10471602;28;1823;-73
2022/06/24 06:06:52;;;;;;;;;;;20.90;99.90;;;20.70;89.09;95197.50;10464815;28;1845;-76
2022/06/24 06:11:55;;;;;;;;;;;21.10;99.90;;;21.14;83.37;95188.41;10469886;28;1810;-75
2022/06/24 06:16:58;;;;;;;;;;;21.30;99.90;;;21.10;83.33;95184.78;10468018;28;1969;-74
2022/06/24 06:22:01;;;;;;;;;;;21.60;99.90;;;21.47;82.77;95182.53;10471942;28;1831;-75
2022/06/24 06:27:03;;;;;;;;;;;21.80;99.90;;;22.13;77.59;95184.28;10466893;28;1880;-75
2022/06/24 06:32:06;;;;;;;;;;;22.20;99.90;;;22.62;72.15;95194.59;10463522;28;1869;-74
2022/06/24 06:37:11;;;;;;;;;;;22.70;99.90;;;23.10;72.50;95198.56;10472300;28;1985;-72
2022/06/24 06:42:13;;;;;;;;;;;23.10;99.90;;;23.00;71.90;95199.19;10463780;28;1956;-71
2022/06/24 06:47:16;;;;;;;;;;;23.80;99.90;;;22.82;70.73;95184.34;10475318;28;1937;-72
2022/06/24 06:52:19;;;;;;;;;;;23.60;99.90;;;23.22;70.90;95194.81;10473161;28;1827;-71
2022/06/24 06:57:22;;;;;;;;;;;23.80;99.90;;;23.71;67.90;95186.53;10468070;28;2024;-72
2022/06/24 07:02:25;;;;;;;;;;;24.30;99.90;;;24.23;64.03;95173.03;10465404;28;1869;-72
2022/06/24 07:07:29;;;;;;;;;;;24.80;99.90;;;24.41;61.84;95165.03;10474734;28;1838;-72
2022/06/24 07:12:31;;;;;;;;;;;24.60;99.90;;;24.98;61.41;95160.03;10468667;28;1920;-71
2022/06/24 07:17:35;;;;;;;;;;;25.20;99.90;;;25.43;58.49;95152.53;10468883;28;1917;-73
2022/06/24 07:22:38;;;;;;;;;;;;;;;26.05;55.57;95149.72;10466388;28;1817;-71
2022/06/24 07:27:41;;;;;;;;;;;;;;;26.19;54.87;95144.22;10470155;28;1943;-73
2022/06/24 07:32:45;;;;;;;;;;;;;;;26.71;51.64;95157.75;10476479;28;1877;-71
2022/06/24 07:37:48;;;;;;;;;;;;;;;26.34;54.06;95151.38;10490136;28;2014;-72
2022/06/24 07:42:51;;;;;;;;;;;;;;;25.80;56.99;95150.38;10472716;28;1840;-71
2022/06/24 07:47:54;;;;;;;;;;;;;;;26.73;52.23;95150.69;10484068;28;1875;-71
2022/06/24 07:52:57;;;;;;;;;;;26.00;99.90;;;26.39;52.56;95150.97;10502373;28;2094;-72
2022/06/24 07:58:00;;;;;;;;;;;26.70;99.90;;;26.17;53.89;95146.59;10477478;28;1950;-73
2022/06/24 08:03:02;;;;;;;;;;;26.70;99.90;;;25.70;56.36;95140.06;10476317;28;1841;-72
2022/06/24 08:08:06;;;;;;;;;;;26.50;99.90;;;25.02;60.51;95142.41;10478762;28;1953;-73
2022/06/24 08:13:09;;;;;;;;;;;25.90;99.90;;;24.86;61.44;95135.59;10473385;28;1836;-73
2022/06/24 08:18:11;;;;;;;;;;;25.60;99.90;;;24.09;70.46;95132.50;10476391;28;1914;-72
2022/06/24 08:23:15;;;;;;;;;;;25.30;99.90;;;23.84;73.48;95136.91;10473065;28;1994;-73
2022/06/24 08:28:18;;;;;;;;;;;24.70;99.90;;;24.09;71.51;95128.97;10471491;28;2024;-72
2022/06/24 08:33:25;;;;;;;;;;;24.40;99.90;;;24.78;63.82;95127.28;10474401;28;1853;-73
2022/06/24 08:38:29;;;;;;;;;;;24.70;99.90;;;24.80;60.50;95121.41;10475501;28;1910;-72
2022/06/24 08:43:32;;;;;;;;;;;;;;;24.74;59.60;95109.19;10473631;28;1818;-73
2022/06/24 08:48:35;;;;;;;;;;;25.20;99.90;;;25.19;59.98;95102.47;10471625;28;1847;-73
2022/06/24 08:53:38;;;;;;;;;;;25.30;99.90;;;25.91;53.63;95113.88;10474949;28;1956;-72
2022/06/24 08:58:41;;;;;;;;;;;25.90;99.90;;;25.79;55.40;95113.03;10474193;28;1989;-73
2022/06/24 09:03:48;;;;;;;;;;;26.00;99.90;;;26.32;53.11;95114.34;10478291;28;1903;-74
2022/06/24 09:08:59;;;;;;;;;;;26.70;99.90;;;26.45;51.90;95110.06;10476935;28;1828;-75
2022/06/24 09:14:01;;;;;;;;;;;27.10;99.90;;;27.06;49.02;95102.63;10473115;28;1824;-75
2022/06/24 09:19:05;;;;;;;;;;;27.20;99.90;;;27.91;47.25;95090.56;10472492;28;1991;-73
2022/06/24 09:24:08;;;;;;;;;;;27.90;99.90;;;27.33;47.95;95094.69;10474275;28;1824;-74
2022/06/24 09:29:11;;;;;;;;;;;27.90;99.90;;;26.98;47.87;95090.00;10468529;28;1970;-73
2022/06/24 09:34:14;;;;;;;;;;;27.30;99.90;;;26.03;50.83;95080.47;10475560;28;1816;-73
2022/06/24 09:39:17;;;;;;;;;;;;;;;26.50;49.02;95073.09;10470341;28;1914;-75
2022/06/24 09:44:28;;;;;;;;;;;26.80;99.90;;;26.30;47.62;95070.66;10475090;28;1811;-74
2022/06/24 09:49:31;;;;;;;;;;;27.00;99.90;;;27.00;46.23;95049.03;10474471;28;1688;-74
2022/06/24 09:54:34;;;;;;;;;;;27.50;99.90;;;26.87;45.25;95056.94;10475210;28;1946;-74
2022/06/24 10:04:57;;;;;;;;;;;27.00;99.90;;;25.97;46.89;95030.50;10469607;28;1795;-72
2022/06/24 10:09:59;;;;;;;;;;;26.80;99.90;;;26.37;46.83;95028.56;10476537;28;1862;-71
2022/06/24 10:15:02;;;;;;;;;;;27.10;99.90;;;26.24;42.83;95019.91;10471247;28;1773;-71
2022/06/24 10:20:06;;;;;;;;;;;26.90;99.90;;;27.34;43.09;95013.47;10482505;28;1922;-72
2022/06/24 10:25:08;;;;;;;;;;;27.30;99.90;;;27.48;40.88;94999.66;10478252;28;1818;-74
2022/06/24 10:30:11;;;;;;;;;;;27.80;99.90;;;26.50;40.75;94995.91;10468676;28;1857;-74
2022/06/24 10:35:14;;;;;;;;;;;27.30;99.90;;;26.17;40.38;94994.31;10470879;28;1758;-72
2022/06/24 10:40:17;;;;;;;;;;;27.00;99.90;;;28.16;37.77;94979.91;10469663;28;1983;-73
2022/06/24 10:45:21;;;;;;;;;;;;;;;28.93;35.94;94971.38;10469586;28;1856;-73
2022/06/24 10:50:23;;;;;;;;;;;29.20;99.90;;;28.23;37.26;94968.03;10459935;28;1885;-72
2022/06/24 10:55:29;;;;;;;;;;;29.10;99.90;;;28.04;38.43;94965.81;10467458;28;2046;-72
2022/06/24 11:00:32;;;;;;;;;;;28.70;99.90;;;27.72;37.92;94966.81;10474118;28;1913;-74
2022/06/24 11:05:35;;;;;;;;;;;29.00;99.90;;;28.32;37.98;94965.63;10478507;28;1948;-75
2022/06/24 11:10:37;;;;;;;;;;;29.20;99.90;;;26.91;39.17;94975.00;10479011;28;1888;-73
2022/06/24 11:15:40;;;;;;;;;;;28.60;99.90;;;27.60;38.47;94964.47;10474701;28;1772;-76
2022/06/24 11:20:43;;;;;;;;;;;28.10;99.90;;;27.84;38.09;94940.69;10479611;28;1914;-72
2022/06/24 11:25:46;;;;;;;;;;;28.30;99.90;;;26.70;43.58;94946.66;10475641;28;1876;-73
2022/06/24 11:30:49;;;;;;;;;;;28.00;99.90;;;26.91;45.77;94947.41;10468550;28;1802;-73
2022/06/24 11:35:52;;;;;;;;;;;27.90;99.90;;;26.36;48.11;94949.84;10472914;28;1975;-71
2022/06/24 11:40:57;;;;;;;;;;;27.50;99.90;;;26.34;47.78;94946.72;10473591;28;1922;-72
2022/06/24 11:46:00;;;;;;;;;;;27.70;99.90;;;25.96;48.66;94928.97;10476930;28;2521;-73
2022/06/24 11:51:03;;;;;;;;;;;27.20;99.90;;;26.40;46.08;94912.06;10475927;28;1853;-73
2022/06/24 11:56:06;;;;;;;;;;;27.40;99.90;;;27.42;44.21;94923.16;10473758;28;1977;-73
2022/06/24 12:01:09;;;;;;;;;;;27.90;99.90;;;27.15;44.53;94918.16;10470215;28;1952;-74
2022/06/24 12:06:12;;;;;;;;;;;28.10;99.90;;;27.40;44.26;94907.00;10471472;28;1951;-75
2022/06/24 12:11:14;;;;;;;;;;;28.20;99.90;;;26.91;45.08;94903.28;10475207;28;1736;-72
2022/06/24 12:16:17;;;;;;;;;;;28.10;99.90;;;26.05;45.40;94915.63;10489714;28;1914;-74
2022/06/24 12:21:24;;;;;;;;;;;27.30;99.90;;;25.92;46.09;94908.94;10475232;28;2010;-73
2022/06/24 12:26:27;;;;;;;;;;;26.90;99.90;;;25.88;45.89;94914.44;10465942;28;1904;-73
2022/06/24 12:31:30;;;;;;;;;;;26.70;99.90;;;26.09;46.78;94903.44;10471769;28;1776;-72
2022/06/24 12:36:33;;;;;;;;;;;26.70;99.90;;;26.20;45.93;94899.88;10474498;28;1914;-73
2022/06/24 12:41:37;;;;;;;;;;;26.90;99.90;;;26.07;47.04;94905.78;10472215;28;1809;-72
2022/06/24 12:50:34;;;;;;;;;;;26.80;99.90;;;25.54;49.06;94906.50;10473605;28;1861;-72
2022/06/24 12:52:03;;;;;;;;;;;26.60;99.90;;;25.33;49.64;94903.72;10470441;28;1766;-71
2022/06/24 12:57:07;;;;;;;;;;;26.40;99.90;;;24.27;51.40;94904.75;10462903;28;1898;-72
2022/06/24 13:02:11;;;;;;;;;;;25.80;99.90;;;24.86;50.15;94915.69;10473326;28;1970;-72
2022/06/24 13:07:13;;;;;;;;;;;25.60;99.90;;;24.37;51.19;94915.06;10476594;28;1787;-73
2022/06/24 13:12:16;;;;;;;;;;;25.60;99.90;;;24.30;52.95;94927.91;10466940;28;1832;-74
2022/06/24 13:17:19;;;;;;;;;;;25.30;99.90;;;24.09;53.79;94937.56;10466017;28;1922;-74
2022/06/24 13:22:22;;;;;;;;;;;25.10;99.90;;;23.72;55.78;94946.66;10466672;28;1917;-73
2022/06/24 13:27:25;;;;;;;;;;;25.00;99.90;;;22.60;70.89;94944.91;10465786;28;1863;-74
2022/06/24 13:32:29;;;;;;;;;;;24.10;99.90;;;21.49;80.32;94962.25;10467770;28;1898;-75
2022/06/24 13:37:33;;;;;;;;;;;23.20;99.90;;;21.05;92.88;95000.03;10464420;28;1991;-75
2022/06/24 13:42:37;;;;;;;;;;;;;;;19.94;100.00;95035.69;10473640;28;1850;-75
2022/06/24 13:47:41;;;;;;;;;;;;;;;19.31;100.00;95087.31;10481580;28;1861;-77
2022/06/24 13:52:44;;;;;;;;;;;20.10;99.90;;;19.17;100.00;95131.28;10468982;28;1807;-76
2022/06/24 13:57:47;;;;;;;;;;;19.80;99.90;;;19.11;100.00;95091.00;10470356;28;1906;-77
2022/06/24 14:02:53;;;;;;;;;;;;;;;17.53;100.00;95008.19;10469259;28;1805;-76
2022/06/24 14:07:56;;;;;;;;;;;;;;;17.61;100.00;95058.13;10470897;28;1938;-73
2022/06/24 14:13:00;;;;;;;;;;;;;;;18.04;100.00;95039.44;10466329;28;1870;-73
2022/06/24 14:18:04;;;;;;;;;;;18.50;99.90;;;17.50;100.00;94990.63;10472453;28;1975;-73
2022/06/24 14:28:28;;;;;;;;;;;18.00;99.90;;;17.71;100.00;95084.88;10469600;28;1872;-75
2022/06/24 14:33:30;;;;;;;;;;;18.20;99.90;;;16.96;100.00;95055.03;10466868;28;1744;-75
2022/06/24 14:43:54;;;;;;;;;;;17.80;99.90;;;16.85;100.00;95019.34;10473943;28;1782;-72
2022/06/24 14:48:57;;;;;;;;;;;17.80;99.90;;;17.20;100.00;95017.13;10469235;28;1883;-73
2022/06/24 14:54:20;;;;;;;;;;;17.80;99.90;;;17.64;100.00;95001.19;10472299;28;1891;-72
2022/06/24 14:59:24;;;;;;;;;;;18.00;99.90;;;18.13;100.00;95003.97;10469065;28;1944;-73
2022/06/24 15:04:27;;;;;;;;;;;18.50;99.90;;;18.44;100.00;94991.72;10463317;28;2101;-71
2022/06/24 15:09:29;;;;;;;;;;;18.80;99.90;;;19.63;100.00;94992.81;10473458;28;1876;-73
2022/06/24 15:14:32;;;;;;;;;;;19.40;99.90;;;20.75;100.00;94980.69;10466293;28;2114;-73
2022/06/24 15:19:35;;;;;;;;;;;20.60;99.90;;;20.12;100.00;94969.88;10487220;28;1938;-73
2022/06/24 15:24:38;;;;;;;;;;;21.00;99.90;;;21.56;96.95;94964.34;10489975;28;1860;-73
2022/06/24 15:29:42;;;;;;;;;;;21.30;99.90;;;22.45;90.05;94951.34;10469662;28;1859;-72
2022/06/24 15:34:45;;;;;;;;;;;22.40;99.90;;;22.46;91.74;94939.22;10468379;28;1753;-72
2022/06/24 15:39:49;;;;;;;;;;;22.90;99.90;;;22.98;84.60;94954.84;10465968;28;1909;-72
2022/06/24 15:44:54;;;;;;;;;;;23.20;99.90;;;22.95;87.19;94961.06;10470469;28;1780;-72
2022/06/24 15:49:57;;;;;;;;;;;23.50;99.90;;;22.91;83.62;94961.03;10469853;28;1812;-72
2022/06/24 15:55:00;;;;;;;;;;;23.50;99.90;;;22.33;87.39;94968.75;10468144;28;1841;-74
2022/06/24 16:00:05;;;;;;;;;;;23.30;99.90;;;21.97;90.61;94973.66;10466038;28;1902;-71
2022/06/24 16:05:07;;;;;;;;;;;23.00;99.90;;;22.09;88.34;94975.44;10481928;28;1884;-73
2022/06/24 16:10:10;;;;;;;;;;;22.80;99.90;;;21.85;91.26;94962.91;10479582;28;1884;-73
2022/06/24 16:15:13;;;;;;;;;;;22.70;99.90;;;21.79;94.30;94975.28;10470634;28;2100;-71
2022/06/24 16:20:17;;;;;;;;;;;22.50;99.90;;;21.95;93.14;94978.72;10463666;28;1906;-72
2022/06/24 16:30:40;;;;;;;;;;;22.60;99.90;;;22.27;91.23;94962.84;10468616;28;1725;-72
2022/06/24 16:35:43;;;;;;;;;;;22.70;99.90;;;22.26;90.14;94963.19;10473620;28;1845;-73
2022/06/24 16:40:46;;;;;;;;;;;22.80;99.90;;;22.07;92.74;94964.81;10475320;28;1926;-72
2022/06/24 16:45:49;;;;;;;;;;;22.80;99.90;;;21.79;94.51;94969.81;10464152;28;1850;-71
2022/06/24 16:50:52;;;;;;;;;;;22.60;99.90;;;21.28;98.49;94980.97;10467331;28;1853;-72
2022/06/24 16:55:59;;;;;;;;;;;22.30;99.90;;;21.13;100.00;94988.09;10475505;28;1788;-74
2022/06/24 17:01:03;;;;;;;;;;;22.00;99.90;;;20.59;100.00;95009.97;10465968;28;1979;-71
2022/06/24 17:06:06;;;;;;;;;;;21.60;99.90;;;20.51;100.00;95011.75;10470396;28;1865;-71
2022/06/24 17:11:09;;;;;;;;;;;21.30;99.90;;;20.31;100.00;95013.59;10458353;28;1806;-72
2022/06/24 17:16:12;;;;;;;;;;;21.00;99.90;;;20.26;100.00;95027.50;10465776;28;1796;-72
2022/06/24 17:21:16;;;;;;;;;;;21.00;99.90;;;20.29;100.00;95034.19;10466778;28;1979;-71
2022/06/24 17:26:19;;;;;;;;;;;21.00;99.90;;;20.33;100.00;95041.31;10468275;28;1788;-72
2022/06/24 17:31:22;;;;;;;;;;;21.00;99.90;;;20.15;100.00;95037.34;10467513;28;1834;-72
2022/06/24 17:36:26;;;;;;;;;;;21.00;99.90;;;20.22;100.00;95041.03;10460287;28;1869;-71
2022/06/24 17:41:29;;;;;;;;;;;21.00;99.90;;;20.30;100.00;95044.75;10471702;28;2360;-72
2022/06/24 17:46:32;;;;;;;;;;;21.00;99.90;;;20.25;100.00;95043.09;10470970;28;1733;-72
2022/06/24 17:51:36;;;;;;;;;;;21.00;99.90;;;20.08;100.00;95053.56;10473144;28;2256;-71
2022/06/24 17:56:39;;;;;;;;;;;21.00;99.90;;;19.87;100.00;95062.78;10468177;28;1818;-71
2022/06/24 18:01:42;;;;;;;;;;;20.80;99.90;;;19.77;100.00;95067.94;10468249;28;1969;-72
2022/06/24 18:06:47;;;;;;;;;;;20.60;99.90;;;19.69;100.00;95080.59;10469994;28;1883;-72
2022/06/24 18:11:50;;;;;;;;;;;20.60;99.90;;;19.69;100.00;95086.06;10471758;28;1546;-72
2022/06/24 18:16:53;;;;;;;;;;;20.50;99.90;;;19.70;100.00;95088.44;10470030;28;1494;-72
2022/06/24 18:21:57;;;;;;;;;;;20.50;99.90;;;19.59;100.00;95116.53;10464685;28;1922;-71
2022/06/24 18:27:01;;;;;;;;;;;20.40;99.90;;;19.15;100.00;95147.19;10463420;28;2055;-72
2022/06/24 18:32:04;;;;;;;;;;;20.20;99.90;;;17.69;100.00;95169.50;10467700;28;1957;-73
2022/06/24 18:37:07;;;;;;;;;;;19.30;99.90;;;16.72;100.00;95175.09;10470703;28;1895;-72
2022/06/24 18:42:10;;;;;;;;;;;17.20;99.90;;;15.84;100.00;95195.44;10471158;28;1918;-71
2022/06/24 18:47:13;;;;;;;;;;;16.90;99.90;;;15.82;100.00;95205.78;10474080;28;1928;-72
2022/06/24 18:52:17;;;;;;;;;;;16.50;99.90;;;15.47;100.00;95201.47;10470096;28;2010;-73
2022/06/24 18:57:21;;;;;;;;;;;16.40;99.90;;;15.53;100.00;95200.22;10483636;28;1806;-72
2022/06/24 19:02:24;;;;;;;;;;;16.30;99.90;;;15.22;100.00;95200.34;10465296;28;1910;-72
2022/06/24 19:07:28;;;;;;;;;;;16.00;99.90;;;14.94;100.00;95206.00;10464086;28;1924;-72
2022/06/24 19:12:32;;;;;;;;;;;15.80;99.90;;;14.75;100.00;95211.66;10463822;28;1809;-71
2022/06/24 19:17:35;;;;;;;;;;;15.70;99.90;;;14.81;100.00;95213.13;10463332;28;1911;-72
2022/06/24 19:22:39;;;;;;;;;;;15.70;99.90;;;14.91;100.00;95236.41;10469224;28;1914;-72
2022/06/24 19:27:42;;;;;;;;;;;15.70;99.90;;;14.89;100.00;95241.34;10471112;28;1863;-73
2022/06/24 19:32:56;;;;;;;;;;;15.70;99.90;;;14.99;100.00;95251.88;10472377;28;1869;-75
2022/06/24 19:38:00;;;;;;;;;;;15.90;99.90;;;15.10;100.00;95269.41;10473440;28;1910;-72
2022/06/24 19:43:03;;;;;;;;;;;15.80;99.90;;;15.23;100.00;95273.13;10474666;28;1818;-71
2022/06/24 19:48:06;;;;;;;;;;;15.90;99.90;;;15.07;100.00;95280.06;10470958;28;1867;-72
2022/06/24 19:53:09;;;;;;;;;;;16.00;99.90;;;14.91;100.00;95297.84;10471456;28;1813;-72
2022/06/24 19:58:12;;;;;;;;;;;15.90;99.90;;;15.24;100.00;95312.63;10477779;28;1909;-72
2022/06/24 20:08:36;;;;;;;;;;;16.00;99.90;;;15.17;100.00;95323.09;10475512;28;1774;-72
2022/06/24 20:13:40;;;;;;;;;;;16.00;99.90;;;15.06;100.00;95341.53;10474343;28;1772;-73
2022/06/24 20:18:43;;;;;;;;;;;15.90;99.90;;;15.17;100.00;95350.19;10470733;28;1913;-71
2022/06/24 20:23:47;;;;;;;;;;;15.90;99.90;;;15.18;100.00;95350.97;10469035;28;1866;-72
2022/06/24 20:28:49;;;;;;;;;;;15.90;99.90;;;15.29;100.00;95355.00;10469572;28;2530;-73
2022/06/24 20:33:53;;;;;;;;;;;16.00;99.90;;;15.26;100.00;95374.56;10467127;28;1787;-72
2022/06/24 20:38:56;;;;;;;;;;;15.90;99.90;;;15.01;100.00;95378.75;10467443;28;2308;-73
2022/06/24 20:43:59;;;;;;;;;;;15.90;99.90;;;14.99;100.00;95392.59;10471647;28;1884;-73
2022/06/24 20:49:05;;;;;;;;;;;15.80;99.90;;;15.06;100.00;95392.97;10470107;28;1793;-72
2022/06/24 20:54:09;;;;;;;;;;;15.70;99.90;;;15.03;100.00;95401.72;10485865;28;1862;-72
2022/06/24 20:59:13;;;;;;;;;;;15.80;99.90;;;15.10;100.00;95403.97;10476213;28;1903;-72
2022/06/24 21:04:15;;;;;;;;;;;15.90;99.90;;;14.94;100.00;95405.47;10481485;28;1786;-72
2022/06/24 21:09:21;;;;;;;;;;;15.80;99.90;;;15.07;100.00;95410.78;10473039;28;1897;-72
2022/06/24 21:14:24;;;;;;;;;;;15.70;99.90;;;14.94;100.00;95419.00;10469779;28;1842;-73
2022/06/24 21:19:27;;;;;;;;;;;15.70;99.90;;;15.05;100.00;95428.47;10470091;28;1909;-73
2022/06/24 21:24:30;;;;;;;;;;;15.80;99.90;;;14.90;100.00;95429.66;10463523;28;1806;-73
2022/06/24 21:29:33;;;;;;;;;;;15.70;99.90;;;14.94;100.00;95440.66;10469272;28;1745;-74
2022/06/24 21:34:43;;;;;;;;;;;15.70;99.90;;;14.87;100.00;95452.72;10478482;28;1809;-71
2022/06/24 21:39:46;;;;;;;;;;;15.70;99.90;;;14.84;100.00;95455.25;10460512;28;2101;-72
2022/06/24 21:44:54;;;;;;;;;;;15.60;99.90;;;14.91;100.00;95463.72;10460936;28;1876;-72
2022/06/24 21:49:58;;;;;;;;;;;15.70;99.90;;;14.76;100.00;95469.50;10471182;28;1810;-73
2022/06/24 21:55:02;;;;;;;;;;;15.60;99.90;;;14.74;100.00;95471.72;10468661;28;1906;-72
2022/06/24 22:00:05;;;;;;;;;;;15.60;99.90;;;14.91;100.00;95462.94;10463078;28;1973;-73
2022/06/24 22:05:10;;;;;;;;;;;15.60;99.90;;;15.55;100.00;95475.06;10464958;28;1827;-70
2022/06/24 22:10:12;;;;;;;;;;;15.80;99.90;;;16.41;100.00;95449.31;10472008;28;1850;-73
2022/06/24 22:15:15;;;;;;;;;;;16.50;99.90;;;16.10;100.00;95452.97;10465492;28;1873;-72
2022/06/24 22:20:18;;;;;;;;;;;16.70;99.90;;;16.01;100.00;95465.69;10462284;28;1910;-72
2022/06/24 22:25:21;;;;;;;;;;;16.70;99.90;;;15.91;100.00;95460.59;10466298;28;1797;-72
2022/06/24 22:30:24;;;;;;;;;;;16.50;99.90;;;15.88;100.00;95461.19;10461774;28;1841;-72
2022/06/24 22:35:26;;;;;;;;;;;16.50;99.90;;;15.44;100.00;95470.25;10466353;28;1797;-73
2022/06/24 22:40:29;;;;;;;;;;;16.30;99.90;;;15.62;100.00;95458.41;10462444;28;1915;-72
2022/06/24 22:45:32;;;;;;;;;;;16.30;99.90;;;15.10;100.00;95461.63;10467640;28;1920;-72
2022/06/24 22:50:35;;;;;;;;;;;16.10;99.90;;;14.74;100.00;95460.91;10466445;28;1789;-74
2022/06/24 22:55:39;;;;;;;;;;;15.70;99.90;;;14.72;100.00;95469.31;10473428;28;2005;-73
2022/06/24 23:00:41;;;;;;;;;;;15.60;99.90;;;14.60;100.00;95460.97;10471532;28;2063;-72
2022/06/24 23:05:44;;;;;;;;;;;15.40;99.90;;;14.75;100.00;95471.41;10475248;28;1803;-72
2022/06/24 23:10:47;;;;;;;;;;;15.40;99.90;;;14.85;100.00;95465.75;10467996;28;1817;-73
2022/06/24 23:15:50;;;;;;;;;;;15.50;99.90;;;15.06;100.00;95474.16;10463420;28;1872;-73
2022/06/24 23:20:54;;;;;;;;;;;15.60;99.90;;;14.79;100.00;95480.53;10463671;28;1985;-72
2022/06/24 23:25:56;;;;;;;;;;;15.60;99.90;;;15.01;100.00;95476.19;10473214;28;1914;-72
2022/06/24 23:31:00;;;;;;;;;;;15.70;99.90;;;14.81;100.00;95467.47;10476705;28;1914;-72
2022/06/24 23:36:02;;;;;;;;;;;15.70;99.90;;;14.94;100.00;95478.53;10470652;28;1879;-72
2022/06/24 23:41:05;;;;;;;;;;;15.70;99.90;;;15.02;100.00;95477.81;10466778;28;1979;-72